createdAt,value
2023-05-10T00:03:42.362Z,4.30
2023-05-10T00:08:45.221Z,4.20
2023-05-10T00:13:53.198Z,5.00
2023-05-10T00:18:56.000Z,4.47
2023-05-10T00:23:58.633Z,4.15
2023-05-10T00:29:04.656Z,4.17
2023-05-10T00:34:07.228Z,4.07
2023-05-10T00:39:09.840Z,4.17
2023-05-10T00:44:12.556Z,4.82
2023-05-10T00:49:15.497Z,3.78
2023-05-10T00:54:18.227Z,3.87
2023-05-10T00:59:24.846Z,2.78
2023-05-10T01:04:29.582Z,4.10
2023-05-10T01:09:34.544Z,5.22
2023-05-10T01:14:37.779Z,3.22
2023-05-10T01:19:40.739Z,4.77
2023-05-10T01:25:12.523Z,5.47
2023-05-10T01:30:47.880Z,5.23
2023-05-10T01:35:56.816Z,3.75
2023-05-10T01:41:42.904Z,3.60
2023-05-10T01:46:52.795Z,3.00
2023-05-10T01:52:00.892Z,6.32
2023-05-10T01:57:11.128Z,5.30
2023-05-10T02:02:16.350Z,3.20
2023-05-10T02:07:21.506Z,4.85
2023-05-10T02:12:25.543Z,4.03
2023-05-10T02:17:30.339Z,10.48
2023-05-10T02:22:34.257Z,6.07
2023-05-10T02:27:42.875Z,5.90
2023-05-10T02:32:46.556Z,5.68
2023-05-10T02:37:49.719Z,6.13
2023-05-10T02:42:57.757Z,4.70
2023-05-10T02:48:01.648Z,4.33
2023-05-10T02:53:20.460Z,6.10
2023-05-10T02:58:23.525Z,6.43
2023-05-10T03:03:26.034Z,3.53
2023-05-10T03:08:30.780Z,6.80
2023-05-10T03:13:40.532Z,2.97
2023-05-10T03:19:14.178Z,5.53
2023-05-10T03:24:20.736Z,6.20
2023-05-10T03:29:27.672Z,8.93
2023-05-10T03:34:32.768Z,4.43
2023-05-10T03:39:35.639Z,7.63
2023-05-10T03:44:41.544Z,6.45
2023-05-10T03:49:44.977Z,4.95
2023-05-10T03:54:48.746Z,5.50
2023-05-10T03:59:51.848Z,4.15
2023-05-10T04:04:57.286Z,6.57
2023-05-10T04:10:00.663Z,7.10
2023-05-10T04:15:03.402Z,3.65
2023-05-10T04:20:07.915Z,4.57
2023-05-10T04:25:11.017Z,4.57
2023-05-10T04:30:13.919Z,3.10
2023-05-10T04:35:16.931Z,4.55
2023-05-10T04:40:19.562Z,4.00
2023-05-10T04:45:23.061Z,4.57
2023-05-10T04:50:26.689Z,4.97
2023-05-10T04:55:29.365Z,3.50
2023-05-10T05:00:34.422Z,4.57
2023-05-10T05:05:40.637Z,10.75
2023-05-10T05:10:43.794Z,10.00
2023-05-10T05:15:48.095Z,6.57
2023-05-10T05:20:50.998Z,4.63
2023-05-10T05:26:00.399Z,7.90
2023-05-10T05:31:27.533Z,6.13
2023-05-10T05:36:30.204Z,7.13
2023-05-10T05:41:42.139Z,8.17
2023-05-10T05:46:50.606Z,9.52
2023-05-10T05:51:53.452Z,7.37
2023-05-10T05:57:06.199Z,5.93
2023-05-10T06:02:10.994Z,6.65
2023-05-10T06:07:13.730Z,5.37
2023-05-10T06:12:16.738Z,7.03
2023-05-10T06:17:19.518Z,9.32
2023-05-10T06:22:24.548Z,8.35
2023-05-10T06:27:27.782Z,10.30
2023-05-10T06:32:31.148Z,6.60
2023-05-10T06:37:34.152Z,6.55
2023-05-10T06:42:37.057Z,8.27
2023-05-10T06:47:39.786Z,9.43
2023-05-10T06:52:44.082Z,6.95
2023-05-10T06:57:48.870Z,6.33
2023-05-10T07:02:54.065Z,8.27
2023-05-10T07:07:58.765Z,6.47
2023-05-10T07:13:04.342Z,6.25
2023-05-10T07:18:07.939Z,5.93
2023-05-10T07:23:10.763Z,7.97
2023-05-10T07:28:14.889Z,6.05
2023-05-10T07:33:18.011Z,8.53
2023-05-10T07:38:20.741Z,8.70
2023-05-10T07:43:23.613Z,16.40
2023-05-10T07:48:26.430Z,11.17
2023-05-10T07:53:29.140Z,9.47
2023-05-10T07:58:34.697Z,10.73
2023-05-10T08:03:38.507Z,12.35
2023-05-10T08:08:41.723Z,10.37
2023-05-10T08:13:45.761Z,12.48
2023-05-10T08:18:50.523Z,9.40
2023-05-10T08:23:53.663Z,7.70
2023-05-10T08:28:56.636Z,10.10
2023-05-10T08:33:59.520Z,11.50
2023-05-10T08:39:02.104Z,13.03
2023-05-10T08:44:14.388Z,9.23
2023-05-10T08:49:21.557Z,9.93
2023-05-10T08:54:29.208Z,9.02
2023-05-10T08:59:34.845Z,7.90
2023-05-10T09:09:58.653Z,9.80
2023-05-10T09:15:10.704Z,11.27
2023-05-10T09:20:16.413Z,9.95
2023-05-10T09:25:28.502Z,7.10
2023-05-10T09:30:32.434Z,8.80
2023-05-10T09:35:38.639Z,10.57
2023-05-10T09:40:59.060Z,6.90
2023-05-10T09:46:11.256Z,9.85
2023-05-10T09:51:24.812Z,6.90
2023-05-10T09:56:41.768Z,4.32
2023-05-10T10:01:52.693Z,5.13
2023-05-10T10:07:05.971Z,5.03
2023-05-10T10:12:09.987Z,6.50
2023-05-10T10:17:14.210Z,8.07
2023-05-10T10:22:19.797Z,9.33
2023-05-10T10:27:34.580Z,9.77
2023-05-10T10:33:05.615Z,6.07
2023-05-10T10:38:14.499Z,7.40
2023-05-10T10:43:28.494Z,8.83
2023-05-10T10:48:33.606Z,6.40
2023-05-10T10:53:40.530Z,8.20
2023-05-10T10:58:51.231Z,6.67
2023-05-10T11:04:02.941Z,6.53
2023-05-10T11:09:15.200Z,6.40
2023-05-10T11:14:25.956Z,6.97
2023-05-10T11:19:31.160Z,7.67
2023-05-10T11:24:37.112Z,7.00
2023-05-10T11:29:52.517Z,5.40
2023-05-10T11:34:56.575Z,8.33
2023-05-10T11:40:00.644Z,7.82
2023-05-10T11:45:16.409Z,5.57
2023-05-10T11:50:36.340Z,6.53
2023-05-10T11:55:40.962Z,6.82
2023-05-10T12:00:49.615Z,7.63
2023-05-10T12:05:53.312Z,6.10
2023-05-10T12:11:09.693Z,5.73
2023-05-10T12:16:24.415Z,4.82
2023-05-10T12:21:28.904Z,8.27
2023-05-10T12:26:31.882Z,8.87
2023-05-10T12:31:34.420Z,5.72
2023-05-10T12:36:40.114Z,6.55
2023-05-10T12:41:43.627Z,5.53
2023-05-10T12:46:46.361Z,8.35
2023-05-10T12:51:48.979Z,7.95
2023-05-10T12:56:52.123Z,9.07
2023-05-10T13:01:54.943Z,9.30
2023-05-10T13:07:00.134Z,8.85
2023-05-10T13:12:10.151Z,8.43
2023-05-10T13:17:16.100Z,5.63
2023-05-10T13:22:32.523Z,6.80
2023-05-10T13:27:42.160Z,4.93
2023-05-10T13:32:53.059Z,5.20
2023-05-10T13:37:58.815Z,5.30
2023-05-10T13:43:03.368Z,6.13
2023-05-10T13:48:07.154Z,7.47
2023-05-10T13:53:09.758Z,6.17
2023-05-10T13:58:18.255Z,6.38
2023-05-10T14:03:21.120Z,8.63
2023-05-10T14:08:28.447Z,6.67
2023-05-10T14:13:31.292Z,6.45
2023-05-10T14:18:36.968Z,7.18
2023-05-10T14:23:40.005Z,8.17
2023-05-10T14:28:44.862Z,6.68
2023-05-10T14:33:50.400Z,5.57
2023-05-10T14:38:52.978Z,7.13
2023-05-10T14:43:55.461Z,6.20
2023-05-10T14:48:59.077Z,6.72
2023-05-10T14:54:02.045Z,6.03
2023-05-10T14:59:05.373Z,8.40
2023-05-10T15:04:08.532Z,8.45
2023-05-10T15:09:11.722Z,9.02
2023-05-10T15:14:14.358Z,5.03
2023-05-10T15:19:17.778Z,5.22
2023-05-10T15:24:20.644Z,6.60
2023-05-10T15:29:23.689Z,7.27
2023-05-10T15:34:26.703Z,10.30
2023-05-10T15:39:37.264Z,7.28
2023-05-10T15:44:42.248Z,6.07
2023-05-10T15:49:46.542Z,6.00
2023-05-10T16:00:19.779Z,8.27
2023-05-10T16:05:25.108Z,10.73
2023-05-10T16:10:34.196Z,10.88
2023-05-10T16:15:39.218Z,6.80
2023-05-10T16:20:45.278Z,8.97
2023-05-10T16:25:48.109Z,8.23
2023-05-10T16:30:52.346Z,6.35
2023-05-10T16:35:55.073Z,7.63
2023-05-10T16:40:57.846Z,6.88
2023-05-10T16:46:00.580Z,7.95
2023-05-10T16:51:04.768Z,6.00
2023-05-10T16:56:07.768Z,6.63
2023-05-10T17:01:13.094Z,7.17
2023-05-10T17:06:15.838Z,9.20
2023-05-10T17:11:20.243Z,10.38
2023-05-10T17:16:22.916Z,7.87
2023-05-10T17:21:25.748Z,9.13
2023-05-10T17:26:30.249Z,9.13
2023-05-10T17:31:33.493Z,10.73
2023-05-10T17:36:36.463Z,7.40
2023-05-10T17:41:42.419Z,9.60
2023-05-10T17:46:45.116Z,9.80
2023-05-10T17:51:48.688Z,8.90
2023-05-10T17:56:53.774Z,9.48
2023-05-10T18:01:56.885Z,8.63
2023-05-10T18:07:01.930Z,10.07
2023-05-10T18:12:05.009Z,9.88
2023-05-10T18:17:07.952Z,9.67
2023-05-10T18:22:11.024Z,11.07
2023-05-10T18:27:13.874Z,14.68
2023-05-10T18:32:18.843Z,9.57
2023-05-10T18:37:21.568Z,12.20
2023-05-10T18:42:26.980Z,9.70
2023-05-10T18:47:29.648Z,9.23
2023-05-10T18:52:32.491Z,9.27
2023-05-10T18:57:41.705Z,10.25
2023-05-10T19:02:44.583Z,9.30
2023-05-10T19:07:47.507Z,8.13
2023-05-10T19:12:50.129Z,10.10
2023-05-10T19:17:52.906Z,11.33
2023-05-10T19:23:09.260Z,11.32
2023-05-10T19:28:13.053Z,14.35
2023-05-10T19:33:15.916Z,10.43
2023-05-10T19:38:28.164Z,12.02
2023-05-10T19:43:34.256Z,8.70
2023-05-10T19:48:37.432Z,7.27
2023-05-10T19:53:44.325Z,8.40
2023-05-10T19:58:46.994Z,7.77
2023-05-10T20:03:49.628Z,9.27
2023-05-10T20:08:52.265Z,5.50
2023-05-10T20:13:55.585Z,7.30
2023-05-10T20:18:58.278Z,7.47
2023-05-10T20:24:01.374Z,6.88
2023-05-10T20:29:04.048Z,5.43
2023-05-10T20:34:06.774Z,7.40
2023-05-10T20:39:09.887Z,8.00
2023-05-10T20:44:12.491Z,6.30
2023-05-10T20:49:15.045Z,7.80
2023-05-10T20:54:17.628Z,7.43
2023-05-10T20:59:20.364Z,7.25
2023-05-10T21:04:23.125Z,7.13
2023-05-10T21:09:25.630Z,5.97
2023-05-10T21:14:31.484Z,6.38
2023-05-10T21:19:34.142Z,6.93
2023-05-10T21:24:42.088Z,6.82
2023-05-10T21:29:44.657Z,7.57
2023-05-10T21:34:47.148Z,6.60
2023-05-10T21:39:50.213Z,7.80
2023-05-10T21:44:53.132Z,8.77
2023-05-10T21:49:55.646Z,9.80
2023-05-10T21:54:58.126Z,10.70
2023-05-10T22:00:00.608Z,9.87
2023-05-10T22:05:03.922Z,8.88
2023-05-10T22:10:09.108Z,9.23
2023-05-10T22:15:12.234Z,8.80
2023-05-10T22:20:15.098Z,9.45
2023-05-10T22:25:17.799Z,11.10
2023-05-10T22:30:20.756Z,9.63
2023-05-10T22:35:26.071Z,9.60
2023-05-10T22:40:28.615Z,9.33
2023-05-10T22:45:31.470Z,10.38
2023-05-10T22:50:34.254Z,8.82
2023-05-10T22:55:36.898Z,10.50
2023-05-10T23:00:39.851Z,9.85
2023-05-10T23:05:42.454Z,9.43
2023-05-10T23:10:44.942Z,9.80
2023-05-10T23:15:47.456Z,8.23
2023-05-10T23:20:49.952Z,10.53
2023-05-10T23:25:52.568Z,8.32
2023-05-10T23:30:56.987Z,8.73
2023-05-10T23:41:26.781Z,7.75
2023-05-10T23:46:30.832Z,6.37
2023-05-10T23:51:33.672Z,5.80
2023-05-10T23:56:36.439Z,5.10
